sensor_id;sensor_type;location;lat;lon;timestamp;P1;durP1;ratioP1;P2;durP2;ratioP2
19492;SDS011;9887;54.366;10.958;2023-11-21T00:00:37;7.38;;;4.30;;
19492;SDS011;9887;54.366;10.958;2023-11-21T00:03:05;8.82;;;4.78;;
19492;SDS011;9887;54.366;10.958;2023-11-21T00:05:36;6.90;;;4.45;;
19492;SDS011;9887;54.366;10.958;2023-11-21T00:08:04;5.95;;;4.40;;
19492;SDS011;9887;54.366;10.958;2023-11-21T00:10:32;7.65;;;4.90;;
19492;SDS011;9887;54.366;10.958;2023-11-21T00:13:00;8.10;;;4.45;;
19492;SDS011;9887;54.366;10.958;2023-11-21T00:15:29;7.00;;;4.60;;
19492;SDS011;9887;54.366;10.958;2023-11-21T00:17:56;7.82;;;4.45;;
19492;SDS011;9887;54.366;10.958;2023-11-21T00:20:24;8.70;;;5.00;;
19492;SDS011;9887;54.366;10.958;2023-11-21T00:22:53;6.20;;;4.30;;
19492;SDS011;9887;54.366;10.958;2023-11-21T00:25:21;7.35;;;5.20;;
19492;SDS011;9887;54.366;10.958;2023-11-21T00:27:49;8.43;;;5.03;;
19492;SDS011;9887;54.366;10.958;2023-11-21T00:30:17;8.50;;;4.70;;
19492;SDS011;9887;54.366;10.958;2023-11-21T00:32:46;6.28;;;4.78;;
19492;SDS011;9887;54.366;10.958;2023-11-21T00:35:14;9.70;;;5.32;;
19492;SDS011;9887;54.366;10.958;2023-11-21T00:37:42;7.90;;;4.75;;
19492;SDS011;9887;54.366;10.958;2023-11-21T00:40:12;7.70;;;4.75;;
19492;SDS011;9887;54.366;10.958;2023-11-21T00:42:41;8.43;;;5.35;;
19492;SDS011;9887;54.366;10.958;2023-11-21T00:45:11;6.90;;;4.90;;
19492;SDS011;9887;54.366;10.958;2023-11-21T00:47:39;7.78;;;4.72;;
19492;SDS011;9887;54.366;10.958;2023-11-21T00:50:07;8.10;;;5.03;;
19492;SDS011;9887;54.366;10.958;2023-11-21T00:52:36;7.28;;;4.43;;
19492;SDS011;9887;54.366;10.958;2023-11-21T00:55:04;8.00;;;4.65;;
19492;SDS011;9887;54.366;10.958;2023-11-21T00:57:35;6.28;;;4.35;;
19492;SDS011;9887;54.366;10.958;2023-11-21T01:00:03;6.82;;;4.43;;
19492;SDS011;9887;54.366;10.958;2023-11-21T01:02:34;5.97;;;4.22;;
19492;SDS011;9887;54.366;10.958;2023-11-21T01:05:03;6.47;;;4.28;;
19492;SDS011;9887;54.366;10.958;2023-11-21T01:07:33;6.68;;;4.35;;
19492;SDS011;9887;54.366;10.958;2023-11-21T01:10:03;6.15;;;4.10;;
19492;SDS011;9887;54.366;10.958;2023-11-21T01:12:35;7.93;;;4.45;;
19492;SDS011;9887;54.366;10.958;2023-11-21T01:15:04;8.25;;;4.85;;
19492;SDS011;9887;54.366;10.958;2023-11-21T01:17:34;6.93;;;4.53;;
19492;SDS011;9887;54.366;10.958;2023-11-21T01:20:03;7.25;;;4.50;;
19492;SDS011;9887;54.366;10.958;2023-11-21T01:22:37;8.70;;;4.32;;
19492;SDS011;9887;54.366;10.958;2023-11-21T01:25:05;6.32;;;4.40;;
19492;SDS011;9887;54.366;10.958;2023-11-21T01:27:35;6.70;;;4.70;;
19492;SDS011;9887;54.366;10.958;2023-11-21T01:30:04;7.03;;;4.60;;
19492;SDS011;9887;54.366;10.958;2023-11-21T01:32:34;8.75;;;4.25;;
19492;SDS011;9887;54.366;10.958;2023-11-21T01:35:02;6.25;;;4.00;;
19492;SDS011;9887;54.366;10.958;2023-11-21T01:37:32;6.68;;;4.40;;
19492;SDS011;9887;54.366;10.958;2023-11-21T01:40:00;6.00;;;4.13;;
19492;SDS011;9887;54.366;10.958;2023-11-21T01:42:28;7.40;;;3.63;;
19492;SDS011;9887;54.366;10.958;2023-11-21T01:44:58;5.78;;;3.60;;
19492;SDS011;9887;54.366;10.958;2023-11-21T01:47:26;6.95;;;4.20;;
19492;SDS011;9887;54.366;10.958;2023-11-21T01:49:53;9.35;;;3.60;;
19492;SDS011;9887;54.366;10.958;2023-11-21T01:52:21;5.75;;;3.53;;
19492;SDS011;9887;54.366;10.958;2023-11-21T01:54:50;5.05;;;3.42;;
19492;SDS011;9887;54.366;10.958;2023-11-21T01:57:19;6.80;;;3.50;;
19492;SDS011;9887;54.366;10.958;2023-11-21T01:59:47;5.22;;;3.50;;
19492;SDS011;9887;54.366;10.958;2023-11-21T02:02:17;5.15;;;3.28;;
19492;SDS011;9887;54.366;10.958;2023-11-21T02:04:45;8.27;;;3.03;;
19492;SDS011;9887;54.366;10.958;2023-11-21T02:07:13;5.25;;;2.92;;
19492;SDS011;9887;54.366;10.958;2023-11-21T02:09:41;4.70;;;2.90;;
19492;SDS011;9887;54.366;10.958;2023-11-21T02:12:09;4.68;;;2.70;;
19492;SDS011;9887;54.366;10.958;2023-11-21T02:14:38;5.60;;;3.08;;
19492;SDS011;9887;54.366;10.958;2023-11-21T02:17:06;5.93;;;2.83;;
19492;SDS011;9887;54.366;10.958;2023-11-21T02:19:35;4.10;;;2.60;;
19492;SDS011;9887;54.366;10.958;2023-11-21T02:22:03;4.00;;;2.45;;
19492;SDS011;9887;54.366;10.958;2023-11-21T02:24:34;3.97;;;2.60;;
19492;SDS011;9887;54.366;10.958;2023-11-21T02:27:03;4.47;;;2.50;;
19492;SDS011;9887;54.366;10.958;2023-11-21T02:32:45;3.83;;;2.42;;
19492;SDS011;9887;54.366;10.958;2023-11-21T02:35:15;5.35;;;2.78;;
19492;SDS011;9887;54.366;10.958;2023-11-21T02:37:43;5.10;;;2.70;;
19492;SDS011;9887;54.366;10.958;2023-11-21T02:40:13;6.32;;;2.63;;
19492;SDS011;9887;54.366;10.958;2023-11-21T02:42:44;4.53;;;2.72;;
19492;SDS011;9887;54.366;10.958;2023-11-21T02:45:14;6.20;;;3.10;;
19492;SDS011;9887;54.366;10.958;2023-11-21T02:47:43;5.40;;;3.22;;
19492;SDS011;9887;54.366;10.958;2023-11-21T02:50:11;6.63;;;3.28;;
19492;SDS011;9887;54.366;10.958;2023-11-21T02:52:39;6.65;;;3.25;;
19492;SDS011;9887;54.366;10.958;2023-11-21T02:55:07;5.53;;;2.78;;
19492;SDS011;9887;54.366;10.958;2023-11-21T02:57:37;6.68;;;3.15;;
19492;SDS011;9887;54.366;10.958;2023-11-21T03:00:05;6.85;;;3.20;;
19492;SDS011;9887;54.366;10.958;2023-11-21T03:02:34;5.82;;;2.85;;
19492;SDS011;9887;54.366;10.958;2023-11-21T03:05:06;5.47;;;3.13;;
19492;SDS011;9887;54.366;10.958;2023-11-21T03:07:36;5.03;;;2.83;;
19492;SDS011;9887;54.366;10.958;2023-11-21T03:10:05;5.35;;;2.90;;
19492;SDS011;9887;54.366;10.958;2023-11-21T03:12:37;5.10;;;3.20;;
19492;SDS011;9887;54.366;10.958;2023-11-21T03:15:05;5.97;;;3.13;;
19492;SDS011;9887;54.366;10.958;2023-11-21T03:17:35;6.38;;;3.30;;
19492;SDS011;9887;54.366;10.958;2023-11-21T03:20:03;5.75;;;3.05;;
19492;SDS011;9887;54.366;10.958;2023-11-21T03:22:37;6.25;;;3.10;;
19492;SDS011;9887;54.366;10.958;2023-11-21T03:25:05;4.60;;;3.03;;
19492;SDS011;9887;54.366;10.958;2023-11-21T03:27:38;6.72;;;3.20;;
19492;SDS011;9887;54.366;10.958;2023-11-21T03:30:07;5.70;;;3.10;;
19492;SDS011;9887;54.366;10.958;2023-11-21T03:32:37;5.88;;;3.30;;
19492;SDS011;9887;54.366;10.958;2023-11-21T03:35:05;5.47;;;3.10;;
19492;SDS011;9887;54.366;10.958;2023-11-21T03:37:34;7.25;;;3.45;;
19492;SDS011;9887;54.366;10.958;2023-11-21T03:40:02;5.38;;;3.17;;
19492;SDS011;9887;54.366;10.958;2023-11-21T03:42:31;5.20;;;3.10;;
19492;SDS011;9887;54.366;10.958;2023-11-21T03:45:00;5.03;;;3.35;;
19492;SDS011;9887;54.366;10.958;2023-11-21T03:47:29;6.03;;;2.85;;
19492;SDS011;9887;54.366;10.958;2023-11-21T03:49:57;7.65;;;3.08;;
19492;SDS011;9887;54.366;10.958;2023-11-21T03:52:26;5.32;;;2.97;;
19492;SDS011;9887;54.366;10.958;2023-11-21T03:54:54;5.35;;;3.13;;
19492;SDS011;9887;54.366;10.958;2023-11-21T03:57:22;4.45;;;2.80;;
19492;SDS011;9887;54.366;10.958;2023-11-21T03:59:50;6.88;;;3.05;;
19492;SDS011;9887;54.366;10.958;2023-11-21T04:02:19;4.65;;;2.88;;
19492;SDS011;9887;54.366;10.958;2023-11-21T04:04:47;6.18;;;3.00;;
19492;SDS011;9887;54.366;10.958;2023-11-21T04:07:15;5.10;;;2.70;;
19492;SDS011;9887;54.366;10.958;2023-11-21T04:09:43;6.78;;;2.88;;
19492;SDS011;9887;54.366;10.958;2023-11-21T04:12:11;6.13;;;3.33;;
19492;SDS011;9887;54.366;10.958;2023-11-21T04:14:39;5.80;;;2.80;;
19492;SDS011;9887;54.366;10.958;2023-11-21T04:17:07;6.05;;;2.85;;
19492;SDS011;9887;54.366;10.958;2023-11-21T04:19:37;5.28;;;3.00;;
19492;SDS011;9887;54.366;10.958;2023-11-21T04:22:05;4.63;;;2.88;;
19492;SDS011;9887;54.366;10.958;2023-11-21T04:24:33;5.43;;;2.90;;
19492;SDS011;9887;54.366;10.958;2023-11-21T04:27:00;4.53;;;2.40;;
19492;SDS011;9887;54.366;10.958;2023-11-21T04:29:29;4.43;;;2.72;;
19492;SDS011;9887;54.366;10.958;2023-11-21T04:31:56;4.00;;;2.55;;
19492;SDS011;9887;54.366;10.958;2023-11-21T04:34:25;5.35;;;2.80;;
19492;SDS011;9887;54.366;10.958;2023-11-21T04:36:54;5.75;;;3.10;;
19492;SDS011;9887;54.366;10.958;2023-11-21T04:39:22;6.72;;;3.10;;
19492;SDS011;9887;54.366;10.958;2023-11-21T04:41:50;5.43;;;3.15;;
19492;SDS011;9887;54.366;10.958;2023-11-21T04:44:17;5.70;;;3.20;;
19492;SDS011;9887;54.366;10.958;2023-11-21T04:46:46;6.18;;;3.35;;
19492;SDS011;9887;54.366;10.958;2023-11-21T04:49:14;6.30;;;3.95;;
19492;SDS011;9887;54.366;10.958;2023-11-21T04:51:41;6.00;;;3.72;;
19492;SDS011;9887;54.366;10.958;2023-11-21T04:54:11;8.82;;;4.30;;
19492;SDS011;9887;54.366;10.958;2023-11-21T04:56:38;6.47;;;3.92;;
19492;SDS011;9887;54.366;10.958;2023-11-21T04:59:06;6.53;;;3.70;;
19492;SDS011;9887;54.366;10.958;2023-11-21T05:01:34;6.93;;;4.50;;
19492;SDS011;9887;54.366;10.958;2023-11-21T05:04:03;5.90;;;3.67;;
19492;SDS011;9887;54.366;10.958;2023-11-21T05:06:32;7.53;;;4.22;;
19492;SDS011;9887;54.366;10.958;2023-11-21T05:09:00;7.45;;;4.72;;
19492;SDS011;9887;54.366;10.958;2023-11-21T05:11:29;11.20;;;5.20;;
19492;SDS011;9887;54.366;10.958;2023-11-21T05:13:58;10.23;;;4.70;;
19492;SDS011;9887;54.366;10.958;2023-11-21T05:16:27;6.70;;;4.70;;
19492;SDS011;9887;54.366;10.958;2023-11-21T05:18:55;8.60;;;5.03;;
19492;SDS011;9887;54.366;10.958;2023-11-21T05:21:26;8.38;;;4.75;;
19492;SDS011;9887;54.366;10.958;2023-11-21T05:23:55;11.00;;;5.53;;
19492;SDS011;9887;54.366;10.958;2023-11-21T05:26:23;8.20;;;4.85;;
19492;SDS011;9887;54.366;10.958;2023-11-21T05:28:53;8.40;;;5.68;;
19492;SDS011;9887;54.366;10.958;2023-11-21T05:31:21;7.65;;;4.72;;
19492;SDS011;9887;54.366;10.958;2023-11-21T05:33:49;8.13;;;4.97;;
19492;SDS011;9887;54.366;10.958;2023-11-21T05:36:17;6.47;;;4.40;;
19492;SDS011;9887;54.366;10.958;2023-11-21T05:38:45;7.90;;;4.43;;
19492;SDS011;9887;54.366;10.958;2023-11-21T05:41:13;8.73;;;4.68;;
19492;SDS011;9887;54.366;10.958;2023-11-21T05:43:42;8.10;;;4.35;;
19492;SDS011;9887;54.366;10.958;2023-11-21T05:46:11;7.22;;;4.55;;
19492;SDS011;9887;54.366;10.958;2023-11-21T05:48:39;7.40;;;3.85;;
19492;SDS011;9887;54.366;10.958;2023-11-21T05:51:08;6.88;;;4.00;;
19492;SDS011;9887;54.366;10.958;2023-11-21T05:53:38;7.07;;;4.35;;
19492;SDS011;9887;54.366;10.958;2023-11-21T05:56:07;8.07;;;4.20;;
19492;SDS011;9887;54.366;10.958;2023-11-21T05:58:35;6.43;;;4.30;;
19492;SDS011;9887;54.366;10.958;2023-11-21T06:01:05;8.35;;;4.40;;
19492;SDS011;9887;54.366;10.958;2023-11-21T06:03:37;7.38;;;4.30;;
19492;SDS011;9887;54.366;10.958;2023-11-21T06:06:05;5.97;;;4.10;;
19492;SDS011;9887;54.366;10.958;2023-11-21T06:08:33;6.20;;;4.25;;
19492;SDS011;9887;54.366;10.958;2023-11-21T06:11:01;6.32;;;4.10;;
19492;SDS011;9887;54.366;10.958;2023-11-21T06:13:31;7.82;;;4.15;;
19492;SDS011;9887;54.366;10.958;2023-11-21T06:15:59;8.13;;;4.85;;
19492;SDS011;9887;54.366;10.958;2023-11-21T06:18:27;9.05;;;4.53;;
19492;SDS011;9887;54.366;10.958;2023-11-21T06:20:56;6.30;;;4.22;;
19492;SDS011;9887;54.366;10.958;2023-11-21T06:23:26;5.63;;;3.63;;
19492;SDS011;9887;54.366;10.958;2023-11-21T06:25:55;5.85;;;3.95;;
19492;SDS011;9887;54.366;10.958;2023-11-21T06:28:25;6.28;;;3.78;;
19492;SDS011;9887;54.366;10.958;2023-11-21T06:30:53;7.65;;;4.47;;
19492;SDS011;9887;54.366;10.958;2023-11-21T06:33:21;6.80;;;3.90;;
19492;SDS011;9887;54.366;10.958;2023-11-21T06:35:49;8.05;;;3.92;;
19492;SDS011;9887;54.366;10.958;2023-11-21T06:38:18;7.72;;;4.22;;
19492;SDS011;9887;54.366;10.958;2023-11-21T06:40:47;6.85;;;4.05;;
19492;SDS011;9887;54.366;10.958;2023-11-21T06:43:15;5.75;;;3.88;;
19492;SDS011;9887;54.366;10.958;2023-11-21T06:45:43;6.00;;;3.88;;
19492;SDS011;9887;54.366;10.958;2023-11-21T06:48:12;6.35;;;4.03;;
19492;SDS011;9887;54.366;10.958;2023-11-21T06:50:40;6.65;;;4.13;;
19492;SDS011;9887;54.366;10.958;2023-11-21T06:53:08;5.82;;;3.92;;
19492;SDS011;9887;54.366;10.958;2023-11-21T06:55:38;6.95;;;3.88;;
19492;SDS011;9887;54.366;10.958;2023-11-21T06:58:06;8.68;;;4.53;;
19492;SDS011;9887;54.366;10.958;2023-11-21T07:00:35;7.38;;;4.13;;
19492;SDS011;9887;54.366;10.958;2023-11-21T07:03:05;7.22;;;4.18;;
19492;SDS011;9887;54.366;10.958;2023-11-21T07:05:33;9.82;;;4.97;;
19492;SDS011;9887;54.366;10.958;2023-11-21T07:08:01;8.98;;;5.47;;
19492;SDS011;9887;54.366;10.958;2023-11-21T07:10:31;8.75;;;5.35;;
19492;SDS011;9887;54.366;10.958;2023-11-21T07:13:00;8.77;;;4.90;;
19492;SDS011;9887;54.366;10.958;2023-11-21T07:15:28;11.00;;;5.18;;
19492;SDS011;9887;54.366;10.958;2023-11-21T07:17:56;7.75;;;4.78;;
19492;SDS011;9887;54.366;10.958;2023-11-21T07:20:24;7.47;;;4.82;;
19492;SDS011;9887;54.366;10.958;2023-11-21T07:22:53;8.25;;;4.78;;
19492;SDS011;9887;54.366;10.958;2023-11-21T07:25:22;6.53;;;4.25;;
19492;SDS011;9887;54.366;10.958;2023-11-21T07:27:51;6.78;;;3.90;;
19492;SDS011;9887;54.366;10.958;2023-11-21T07:30:21;7.38;;;4.30;;
19492;SDS011;9887;54.366;10.958;2023-11-21T07:32:50;7.18;;;3.92;;
19492;SDS011;9887;54.366;10.958;2023-11-21T07:35:18;7.68;;;4.30;;
19492;SDS011;9887;54.366;10.958;2023-11-21T07:37:47;6.50;;;4.10;;
19492;SDS011;9887;54.366;10.958;2023-11-21T07:40:15;8.07;;;4.30;;
19492;SDS011;9887;54.366;10.958;2023-11-21T07:42:43;6.50;;;4.00;;
19492;SDS011;9887;54.366;10.958;2023-11-21T07:45:11;6.25;;;4.03;;
19492;SDS011;9887;54.366;10.958;2023-11-21T07:47:41;6.88;;;3.65;;
19492;SDS011;9887;54.366;10.958;2023-11-21T07:50:09;6.30;;;3.58;;
19492;SDS011;9887;54.366;10.958;2023-11-21T07:52:39;6.57;;;3.65;;
19492;SDS011;9887;54.366;10.958;2023-11-21T07:55:07;6.30;;;3.00;;
19492;SDS011;9887;54.366;10.958;2023-11-21T07:57:35;4.57;;;2.85;;
19492;SDS011;9887;54.366;10.958;2023-11-21T08:00:03;4.13;;;2.30;;
19492;SDS011;9887;54.366;10.958;2023-11-21T08:02:39;6.47;;;2.50;;
19492;SDS011;9887;54.366;10.958;2023-11-21T08:05:10;4.40;;;2.47;;
19492;SDS011;9887;54.366;10.958;2023-11-21T08:07:50;5.70;;;2.50;;
19492;SDS011;9887;54.366;10.958;2023-11-21T08:10:18;4.13;;;2.70;;
19492;SDS011;9887;54.366;10.958;2023-11-21T08:12:47;4.47;;;2.45;;
19492;SDS011;9887;54.366;10.958;2023-11-21T08:15:18;4.20;;;2.17;;
19492;SDS011;9887;54.366;10.958;2023-11-21T08:17:46;4.85;;;2.40;;
19492;SDS011;9887;54.366;10.958;2023-11-21T08:20:16;5.28;;;2.35;;
19492;SDS011;9887;54.366;10.958;2023-11-21T08:22:45;5.18;;;2.63;;
19492;SDS011;9887;54.366;10.958;2023-11-21T08:25:14;5.82;;;2.80;;
19492;SDS011;9887;54.366;10.958;2023-11-21T08:27:46;5.85;;;2.83;;
19492;SDS011;9887;54.366;10.958;2023-11-21T08:30:14;6.95;;;3.50;;
19492;SDS011;9887;54.366;10.958;2023-11-21T08:32:44;6.00;;;2.60;;
19492;SDS011;9887;54.366;10.958;2023-11-21T08:35:13;5.10;;;3.30;;
19492;SDS011;9887;54.366;10.958;2023-11-21T08:37:44;6.50;;;3.38;;
19492;SDS011;9887;54.366;10.958;2023-11-21T08:40:13;5.40;;;3.22;;
19492;SDS011;9887;54.366;10.958;2023-11-21T08:42:43;5.70;;;3.20;;
19492;SDS011;9887;54.366;10.958;2023-11-21T08:45:12;5.55;;;3.40;;
19492;SDS011;9887;54.366;10.958;2023-11-21T08:47:40;7.70;;;3.30;;
19492;SDS011;9887;54.366;10.958;2023-11-21T08:50:11;7.53;;;2.85;;
19492;SDS011;9887;54.366;10.958;2023-11-21T08:52:39;5.60;;;3.28;;
19492;SDS011;9887;54.366;10.958;2023-11-21T08:55:10;6.05;;;2.97;;
19492;SDS011;9887;54.366;10.958;2023-11-21T08:57:40;5.78;;;3.13;;
19492;SDS011;9887;54.366;10.958;2023-11-21T09:00:11;6.00;;;3.00;;
19492;SDS011;9887;54.366;10.958;2023-11-21T09:02:41;6.93;;;3.15;;
19492;SDS011;9887;54.366;10.958;2023-11-21T09:05:10;5.25;;;3.05;;
19492;SDS011;9887;54.366;10.958;2023-11-21T09:07:40;5.45;;;3.00;;
19492;SDS011;9887;54.366;10.958;2023-11-21T09:10:10;5.60;;;3.10;;
19492;SDS011;9887;54.366;10.958;2023-11-21T09:12:38;8.85;;;3.63;;
19492;SDS011;9887;54.366;10.958;2023-11-21T09:15:07;6.53;;;3.22;;
19492;SDS011;9887;54.366;10.958;2023-11-21T09:17:39;4.57;;;2.88;;
19492;SDS011;9887;54.366;10.958;2023-11-21T09:20:08;5.45;;;3.28;;
19492;SDS011;9887;54.366;10.958;2023-11-21T09:22:37;7.20;;;3.15;;
19492;SDS011;9887;54.366;10.958;2023-11-21T09:25:05;7.07;;;3.22;;
19492;SDS011;9887;54.366;10.958;2023-11-21T09:27:36;6.40;;;3.30;;
19492;SDS011;9887;54.366;10.958;2023-11-21T09:30:06;5.78;;;3.13;;
19492;SDS011;9887;54.366;10.958;2023-11-21T09:32:37;5.28;;;3.20;;
19492;SDS011;9887;54.366;10.958;2023-11-21T09:35:07;5.97;;;3.10;;
19492;SDS011;9887;54.366;10.958;2023-11-21T09:37:36;7.22;;;3.63;;
19492;SDS011;9887;54.366;10.958;2023-11-21T09:40:06;6.32;;;3.22;;
19492;SDS011;9887;54.366;10.958;2023-11-21T09:42:46;6.25;;;3.55;;
19492;SDS011;9887;54.366;10.958;2023-11-21T09:45:21;5.82;;;3.38;;
19492;SDS011;9887;54.366;10.958;2023-11-21T09:47:53;5.97;;;3.30;;
19492;SDS011;9887;54.366;10.958;2023-11-21T09:50:22;5.22;;;3.45;;
19492;SDS011;9887;54.366;10.958;2023-11-21T09:52:55;5.22;;;3.03;;
19492;SDS011;9887;54.366;10.958;2023-11-21T09:55:27;6.65;;;3.85;;
19492;SDS011;9887;54.366;10.958;2023-11-21T09:57:57;6.25;;;3.58;;
19492;SDS011;9887;54.366;10.958;2023-11-21T10:00:27;8.38;;;3.47;;
19492;SDS011;9887;54.366;10.958;2023-11-21T10:02:59;6.80;;;3.42;;
19492;SDS011;9887;54.366;10.958;2023-11-21T10:05:29;5.93;;;3.60;;
19492;SDS011;9887;54.366;10.958;2023-11-21T10:08:00;7.80;;;3.25;;
19492;SDS011;9887;54.366;10.958;2023-11-21T10:10:28;7.18;;;3.33;;
19492;SDS011;9887;54.366;10.958;2023-11-21T10:13:02;6.88;;;3.28;;
19492;SDS011;9887;54.366;10.958;2023-11-21T10:15:33;7.05;;;3.70;;
19492;SDS011;9887;54.366;10.958;2023-11-21T10:18:02;5.63;;;3.75;;
19492;SDS011;9887;54.366;10.958;2023-11-21T10:20:32;5.88;;;3.65;;
19492;SDS011;9887;54.366;10.958;2023-11-21T10:23:01;5.00;;;3.13;;
19492;SDS011;9887;54.366;10.958;2023-11-21T10:25:30;5.68;;;3.50;;
19492;SDS011;9887;54.366;10.958;2023-11-21T10:27:59;6.20;;;3.40;;
19492;SDS011;9887;54.366;10.958;2023-11-21T10:30:36;6.28;;;3.47;;
19492;SDS011;9887;54.366;10.958;2023-11-21T10:33:05;5.22;;;2.92;;
19492;SDS011;9887;54.366;10.958;2023-11-21T10:35:43;7.05;;;3.05;;
19492;SDS011;9887;54.366;10.958;2023-11-21T10:38:18;6.72;;;3.33;;
19492;SDS011;9887;54.366;10.958;2023-11-21T10:40:47;5.70;;;3.25;;
19492;SDS011;9887;54.366;10.958;2023-11-21T10:43:18;8.23;;;3.25;;
19492;SDS011;9887;54.366;10.958;2023-11-21T10:45:46;7.38;;;2.95;;
19492;SDS011;9887;54.366;10.958;2023-11-21T10:48:14;6.85;;;3.20;;
19492;SDS011;9887;54.366;10.958;2023-11-21T10:50:43;7.78;;;3.53;;
19492;SDS011;9887;54.366;10.958;2023-11-21T10:53:12;4.80;;;3.40;;
19492;SDS011;9887;54.366;10.958;2023-11-21T10:55:41;9.13;;;3.20;;
19492;SDS011;9887;54.366;10.958;2023-11-21T10:58:10;5.82;;;3.22;;
19492;SDS011;9887;54.366;10.958;2023-11-21T11:00:43;5.97;;;3.28;;
19492;SDS011;9887;54.366;10.958;2023-11-21T11:03:12;5.95;;;3.05;;
19492;SDS011;9887;54.366;10.958;2023-11-21T11:05:43;6.40;;;3.00;;
19492;SDS011;9887;54.366;10.958;2023-11-21T11:08:19;4.93;;;3.03;;
19492;SDS011;9887;54.366;10.958;2023-11-21T11:10:53;9.20;;;3.60;;
19492;SDS011;9887;54.366;10.958;2023-11-21T11:13:22;5.65;;;2.90;;
19492;SDS011;9887;54.366;10.958;2023-11-21T11:15:53;7.68;;;3.28;;
19492;SDS011;9887;54.366;10.958;2023-11-21T11:18:27;6.75;;;3.78;;
19492;SDS011;9887;54.366;10.958;2023-11-21T11:20:58;7.20;;;4.13;;
19492;SDS011;9887;54.366;10.958;2023-11-21T11:23:38;7.30;;;4.88;;
19492;SDS011;9887;54.366;10.958;2023-11-21T11:26:20;6.28;;;4.38;;
19492;SDS011;9887;54.366;10.958;2023-11-21T11:29:02;7.63;;;4.32;;
19492;SDS011;9887;54.366;10.958;2023-11-21T11:31:40;6.75;;;3.47;;
19492;SDS011;9887;54.366;10.958;2023-11-21T11:34:22;6.05;;;2.80;;
19492;SDS011;9887;54.366;10.958;2023-11-21T11:36:54;5.10;;;3.03;;
19492;SDS011;9887;54.366;10.958;2023-11-21T11:39:29;7.30;;;3.42;;
19492;SDS011;9887;54.366;10.958;2023-11-21T11:41:58;5.78;;;2.70;;
19492;SDS011;9887;54.366;10.958;2023-11-21T11:44:48;5.10;;;2.75;;
19492;SDS011;9887;54.366;10.958;2023-11-21T11:47:23;4.82;;;2.80;;
19492;SDS011;9887;54.366;10.958;2023-11-21T11:49:59;4.15;;;2.50;;
19492;SDS011;9887;54.366;10.958;2023-11-21T11:52:35;3.95;;;2.30;;
19492;SDS011;9887;54.366;10.958;2023-11-21T11:55:06;4.65;;;2.42;;
19492;SDS011;9887;54.366;10.958;2023-11-21T11:57:37;5.22;;;2.25;;
19492;SDS011;9887;54.366;10.958;2023-11-21T12:00:08;4.50;;;2.53;;
19492;SDS011;9887;54.366;10.958;2023-11-21T12:02:47;5.80;;;2.50;;
19492;SDS011;9887;54.366;10.958;2023-11-21T12:05:16;3.58;;;2.30;;
19492;SDS011;9887;54.366;10.958;2023-11-21T12:07:46;5.15;;;3.10;;
19492;SDS011;9887;54.366;10.958;2023-11-21T12:10:17;7.18;;;3.05;;
19492;SDS011;9887;54.366;10.958;2023-11-21T12:12:47;4.95;;;2.60;;
19492;SDS011;9887;54.366;10.958;2023-11-21T12:15:16;4.82;;;2.65;;
19492;SDS011;9887;54.366;10.958;2023-11-21T12:17:44;5.07;;;2.92;;
19492;SDS011;9887;54.366;10.958;2023-11-21T12:20:14;4.82;;;2.50;;
19492;SDS011;9887;54.366;10.958;2023-11-21T12:22:44;4.78;;;2.90;;
19492;SDS011;9887;54.366;10.958;2023-11-21T12:25:15;5.88;;;2.97;;
19492;SDS011;9887;54.366;10.958;2023-11-21T12:27:45;4.78;;;2.85;;
19492;SDS011;9887;54.366;10.958;2023-11-21T12:30:16;5.90;;;2.95;;
19492;SDS011;9887;54.366;10.958;2023-11-21T12:32:47;4.53;;;2.80;;
19492;SDS011;9887;54.366;10.958;2023-11-21T12:35:17;4.90;;;2.78;;
19492;SDS011;9887;54.366;10.958;2023-11-21T12:37:47;5.72;;;3.30;;
19492;SDS011;9887;54.366;10.958;2023-11-21T12:40:18;5.30;;;2.90;;
19492;SDS011;9887;54.366;10.958;2023-11-21T12:42:52;4.53;;;3.00;;
19492;SDS011;9887;54.366;10.958;2023-11-21T12:45:21;5.80;;;3.15;;
19492;SDS011;9887;54.366;10.958;2023-11-21T12:47:55;5.70;;;2.83;;
19492;SDS011;9887;54.366;10.958;2023-11-21T12:50:27;4.55;;;2.55;;
19492;SDS011;9887;54.366;10.958;2023-11-21T12:52:58;4.68;;;2.45;;
19492;SDS011;9887;54.366;10.958;2023-11-21T12:55:30;5.85;;;2.92;;
19492;SDS011;9887;54.366;10.958;2023-11-21T12:58:00;5.07;;;2.22;;
19492;SDS011;9887;54.366;10.958;2023-11-21T13:00:36;5.20;;;2.60;;
19492;SDS011;9887;54.366;10.958;2023-11-21T13:03:08;7.00;;;2.58;;
19492;SDS011;9887;54.366;10.958;2023-11-21T13:05:40;5.60;;;2.50;;
19492;SDS011;9887;54.366;10.958;2023-11-21T13:08:14;5.63;;;2.90;;
19492;SDS011;9887;54.366;10.958;2023-11-21T13:10:48;4.80;;;2.78;;
19492;SDS011;9887;54.366;10.958;2023-11-21T13:13:18;7.30;;;3.22;;
19492;SDS011;9887;54.366;10.958;2023-11-21T13:15:50;5.30;;;2.50;;
19492;SDS011;9887;54.366;10.958;2023-11-21T13:18:21;3.85;;;2.38;;
19492;SDS011;9887;54.366;10.958;2023-11-21T13:20:50;6.88;;;2.90;;
19492;SDS011;9887;54.366;10.958;2023-11-21T13:23:20;6.47;;;2.70;;
19492;SDS011;9887;54.366;10.958;2023-11-21T13:25:49;5.78;;;2.58;;
19492;SDS011;9887;54.366;10.958;2023-11-21T13:28:27;5.20;;;2.70;;
19492;SDS011;9887;54.366;10.958;2023-11-21T13:30:59;4.13;;;2.70;;
19492;SDS011;9887;54.366;10.958;2023-11-21T13:33:39;7.20;;;2.78;;
19492;SDS011;9887;54.366;10.958;2023-11-21T13:36:10;5.82;;;3.00;;
19492;SDS011;9887;54.366;10.958;2023-11-21T13:38:39;6.43;;;2.85;;
19492;SDS011;9887;54.366;10.958;2023-11-21T13:41:09;5.72;;;3.17;;
19492;SDS011;9887;54.366;10.958;2023-11-21T13:43:41;5.00;;;3.30;;
19492;SDS011;9887;54.366;10.958;2023-11-21T13:46:14;5.47;;;2.80;;
19492;SDS011;9887;54.366;10.958;2023-11-21T13:48:49;6.00;;;2.92;;
19492;SDS011;9887;54.366;10.958;2023-11-21T13:51:22;6.47;;;2.90;;
19492;SDS011;9887;54.366;10.958;2023-11-21T13:53:58;6.05;;;2.85;;
19492;SDS011;9887;54.366;10.958;2023-11-21T13:56:26;4.55;;;2.65;;
19492;SDS011;9887;54.366;10.958;2023-11-21T13:58:55;4.90;;;2.78;;
19492;SDS011;9887;54.366;10.958;2023-11-21T14:01:25;4.65;;;2.80;;
19492;SDS011;9887;54.366;10.958;2023-11-21T14:04:15;6.00;;;2.70;;
19492;SDS011;9887;54.366;10.958;2023-11-21T14:06:57;4.65;;;2.28;;
19492;SDS011;9887;54.366;10.958;2023-11-21T14:09:33;4.05;;;1.95;;
19492;SDS011;9887;54.366;10.958;2023-11-21T14:12:09;4.07;;;2.10;;
19492;SDS011;9887;54.366;10.958;2023-11-21T14:14:39;4.00;;;2.33;;
19492;SDS011;9887;54.366;10.958;2023-11-21T14:17:07;3.72;;;2.10;;
19492;SDS011;9887;54.366;10.958;2023-11-21T14:19:38;5.38;;;2.38;;
19492;SDS011;9887;54.366;10.958;2023-11-21T14:22:09;4.45;;;2.47;;
19492;SDS011;9887;54.366;10.958;2023-11-21T14:24:37;4.53;;;2.00;;
19492;SDS011;9887;54.366;10.958;2023-11-21T14:27:10;4.43;;;2.20;;
19492;SDS011;9887;54.366;10.958;2023-11-21T14:29:38;3.72;;;2.15;;
19492;SDS011;9887;54.366;10.958;2023-11-21T14:32:09;5.15;;;2.10;;
19492;SDS011;9887;54.366;10.958;2023-11-21T14:34:39;4.80;;;2.45;;
19492;SDS011;9887;54.366;10.958;2023-11-21T14:37:09;6.78;;;2.67;;
19492;SDS011;9887;54.366;10.958;2023-11-21T14:39:40;7.38;;;2.55;;
19492;SDS011;9887;54.366;10.958;2023-11-21T14:42:11;6.18;;;2.50;;
19492;SDS011;9887;54.366;10.958;2023-11-21T14:44:41;5.05;;;2.95;;
19492;SDS011;9887;54.366;10.958;2023-11-21T14:47:09;5.50;;;2.72;;
19492;SDS011;9887;54.366;10.958;2023-11-21T14:49:46;4.47;;;2.53;;
19492;SDS011;9887;54.366;10.958;2023-11-21T14:52:22;4.90;;;3.25;;
19492;SDS011;9887;54.366;10.958;2023-11-21T14:55:00;5.75;;;3.22;;
19492;SDS011;9887;54.366;10.958;2023-11-21T14:57:42;6.35;;;3.47;;
19492;SDS011;9887;54.366;10.958;2023-11-21T15:00:16;7.70;;;4.05;;
19492;SDS011;9887;54.366;10.958;2023-11-21T15:03:04;7.53;;;4.00;;
19492;SDS011;9887;54.366;10.958;2023-11-21T15:05:34;9.20;;;4.88;;
19492;SDS011;9887;54.366;10.958;2023-11-21T15:08:02;8.68;;;4.90;;